sensor_id;sensor_type;location;lat;lon;timestamp;P1;durP1;ratioP1;P2;durP2;ratioP2
10839;SDS011;5473;42.706;23.328;2022-08-30T00:01:58;0.20;;;0.20;;
10839;SDS011;5473;42.706;23.328;2022-08-30T00:04:25;0.10;;;0.10;;
10839;SDS011;5473;42.706;23.328;2022-08-30T00:06:52;0.10;;;0.10;;
10839;SDS011;5473;42.706;23.328;2022-08-30T00:09:19;0.10;;;0.10;;
10839;SDS011;5473;42.706;23.328;2022-08-30T00:11:46;0.10;;;0.10;;
10839;SDS011;5473;42.706;23.328;2022-08-30T00:14:14;0.10;;;0.10;;
10839;SDS011;5473;42.706;23.328;2022-08-30T00:16:40;0.20;;;0.20;;
10839;SDS011;5473;42.706;23.328;2022-08-30T00:19:09;0.10;;;0.10;;
10839;SDS011;5473;42.706;23.328;2022-08-30T00:21:35;0.10;;;0.10;;
10839;SDS011;5473;42.706;23.328;2022-08-30T00:24:03;0.10;;;0.10;;
10839;SDS011;5473;42.706;23.328;2022-08-30T00:26:30;0.20;;;0.20;;
10839;SDS011;5473;42.706;23.328;2022-08-30T00:28:57;0.10;;;0.10;;
10839;SDS011;5473;42.706;23.328;2022-08-30T00:31:24;0.20;;;0.20;;
10839;SDS011;5473;42.706;23.328;2022-08-30T00:33:51;0.13;;;0.13;;
10839;SDS011;5473;42.706;23.328;2022-08-30T00:36:19;0.10;;;0.10;;
10839;SDS011;5473;42.706;23.328;2022-08-30T00:38:46;0.10;;;0.10;;
10839;SDS011;5473;42.706;23.328;2022-08-30T00:41:13;0.10;;;0.10;;
10839;SDS011;5473;42.706;23.328;2022-08-30T00:43:40;0.10;;;0.10;;
10839;SDS011;5473;42.706;23.328;2022-08-30T00:46:06;0.20;;;0.20;;
10839;SDS011;5473;42.706;23.328;2022-08-30T00:48:35;0.20;;;0.20;;
10839;SDS011;5473;42.706;23.328;2022-08-30T00:51:06;0.20;;;0.20;;
10839;SDS011;5473;42.706;23.328;2022-08-30T00:53:38;0.10;;;0.10;;
10839;SDS011;5473;42.706;23.328;2022-08-30T00:56:07;0.20;;;0.20;;
10839;SDS011;5473;42.706;23.328;2022-08-30T00:58:36;0.20;;;0.20;;
10839;SDS011;5473;42.706;23.328;2022-08-30T01:01:06;0.20;;;0.20;;
10839;SDS011;5473;42.706;23.328;2022-08-30T01:03:34;0.10;;;0.10;;
10839;SDS011;5473;42.706;23.328;2022-08-30T01:06:05;0.10;;;0.10;;
10839;SDS011;5473;42.706;23.328;2022-08-30T01:08:32;0.20;;;0.20;;
10839;SDS011;5473;42.706;23.328;2022-08-30T01:11:01;0.20;;;0.20;;
10839;SDS011;5473;42.706;23.328;2022-08-30T01:13:29;0.17;;;0.17;;
10839;SDS011;5473;42.706;23.328;2022-08-30T01:15:59;0.20;;;0.20;;
10839;SDS011;5473;42.706;23.328;2022-08-30T01:18:27;0.13;;;0.13;;
10839;SDS011;5473;42.706;23.328;2022-08-30T01:20:58;0.20;;;0.20;;
10839;SDS011;5473;42.706;23.328;2022-08-30T01:23:34;0.20;;;0.20;;
10839;SDS011;5473;42.706;23.328;2022-08-30T01:26:04;0.10;;;0.10;;
10839;SDS011;5473;42.706;23.328;2022-08-30T01:28:32;0.10;;;0.10;;
10839;SDS011;5473;42.706;23.328;2022-08-30T01:31:00;0.20;;;0.20;;
10839;SDS011;5473;42.706;23.328;2022-08-30T01:33:27;0.20;;;0.20;;
10839;SDS011;5473;42.706;23.328;2022-08-30T01:35:55;0.17;;;0.17;;
10839;SDS011;5473;42.706;23.328;2022-08-30T01:38:23;0.20;;;0.20;;
10839;SDS011;5473;42.706;23.328;2022-08-30T01:40:57;0.20;;;0.20;;
10839;SDS011;5473;42.706;23.328;2022-08-30T01:43:25;0.10;;;0.10;;
10839;SDS011;5473;42.706;23.328;2022-08-30T01:45:53;0.20;;;0.20;;
10839;SDS011;5473;42.706;23.328;2022-08-30T01:48:19;0.20;;;0.20;;
10839;SDS011;5473;42.706;23.328;2022-08-30T01:50:47;0.20;;;0.20;;
10839;SDS011;5473;42.706;23.328;2022-08-30T01:53:14;0.20;;;0.20;;
10839;SDS011;5473;42.706;23.328;2022-08-30T01:55:41;0.20;;;0.20;;
10839;SDS011;5473;42.706;23.328;2022-08-30T01:58:09;0.13;;;0.13;;
10839;SDS011;5473;42.706;23.328;2022-08-30T02:00:36;0.10;;;0.10;;
10839;SDS011;5473;42.706;23.328;2022-08-30T02:03:03;0.20;;;0.20;;
10839;SDS011;5473;42.706;23.328;2022-08-30T02:05:30;0.10;;;0.10;;
10839;SDS011;5473;42.706;23.328;2022-08-30T02:07:57;0.10;;;0.10;;
10839;SDS011;5473;42.706;23.328;2022-08-30T02:10:24;0.20;;;0.20;;
10839;SDS011;5473;42.706;23.328;2022-08-30T02:12:52;0.20;;;0.20;;
10839;SDS011;5473;42.706;23.328;2022-08-30T02:15:22;0.20;;;0.20;;
10839;SDS011;5473;42.706;23.328;2022-08-30T02:17:49;0.10;;;0.10;;
10839;SDS011;5473;42.706;23.328;2022-08-30T02:20:16;0.20;;;0.20;;
10839;SDS011;5473;42.706;23.328;2022-08-30T02:22:43;0.20;;;0.20;;
10839;SDS011;5473;42.706;23.328;2022-08-30T02:25:10;0.10;;;0.10;;
10839;SDS011;5473;42.706;23.328;2022-08-30T02:27:37;0.20;;;0.20;;
10839;SDS011;5473;42.706;23.328;2022-08-30T02:30:04;0.20;;;0.20;;
10839;SDS011;5473;42.706;23.328;2022-08-30T02:32:34;0.20;;;0.20;;
10839;SDS011;5473;42.706;23.328;2022-08-30T02:35:01;0.17;;;0.17;;
10839;SDS011;5473;42.706;23.328;2022-08-30T02:37:27;0.30;;;0.30;;
10839;SDS011;5473;42.706;23.328;2022-08-30T02:39:54;0.10;;;0.10;;
10839;SDS011;5473;42.706;23.328;2022-08-30T02:42:21;0.20;;;0.20;;
10839;SDS011;5473;42.706;23.328;2022-08-30T02:44:48;0.10;;;0.10;;
10839;SDS011;5473;42.706;23.328;2022-08-30T02:47:15;0.20;;;0.20;;
10839;SDS011;5473;42.706;23.328;2022-08-30T02:49:43;0.20;;;0.20;;
10839;SDS011;5473;42.706;23.328;2022-08-30T02:52:10;0.27;;;0.27;;
10839;SDS011;5473;42.706;23.328;2022-08-30T02:54:36;0.20;;;0.20;;
10839;SDS011;5473;42.706;23.328;2022-08-30T02:57:03;0.20;;;0.20;;
10839;SDS011;5473;42.706;23.328;2022-08-30T02:59:30;0.20;;;0.20;;
10839;SDS011;5473;42.706;23.328;2022-08-30T03:01:58;0.20;;;0.20;;
10839;SDS011;5473;42.706;23.328;2022-08-30T03:04:25;0.20;;;0.20;;
10839;SDS011;5473;42.706;23.328;2022-08-30T03:06:53;0.20;;;0.20;;
10839;SDS011;5473;42.706;23.328;2022-08-30T03:09:20;0.10;;;0.10;;
10839;SDS011;5473;42.706;23.328;2022-08-30T03:11:47;0.20;;;0.20;;
10839;SDS011;5473;42.706;23.328;2022-08-30T03:14:14;0.10;;;0.10;;
10839;SDS011;5473;42.706;23.328;2022-08-30T03:16:41;0.20;;;0.20;;
10839;SDS011;5473;42.706;23.328;2022-08-30T03:19:08;0.20;;;0.20;;
10839;SDS011;5473;42.706;23.328;2022-08-30T03:21:35;0.20;;;0.20;;
10839;SDS011;5473;42.706;23.328;2022-08-30T03:24:04;0.20;;;0.20;;
10839;SDS011;5473;42.706;23.328;2022-08-30T03:26:31;0.20;;;0.20;;
10839;SDS011;5473;42.706;23.328;2022-08-30T03:28:58;0.20;;;0.20;;
10839;SDS011;5473;42.706;23.328;2022-08-30T03:31:25;0.20;;;0.20;;
10839;SDS011;5473;42.706;23.328;2022-08-30T03:33:54;0.20;;;0.20;;
10839;SDS011;5473;42.706;23.328;2022-08-30T03:36:21;0.20;;;0.20;;
10839;SDS011;5473;42.706;23.328;2022-08-30T03:38:48;0.20;;;0.20;;
10839;SDS011;5473;42.706;23.328;2022-08-30T03:41:16;0.20;;;0.20;;
10839;SDS011;5473;42.706;23.328;2022-08-30T03:43:43;0.20;;;0.20;;
10839;SDS011;5473;42.706;23.328;2022-08-30T03:46:11;0.20;;;0.20;;
10839;SDS011;5473;42.706;23.328;2022-08-30T03:48:39;0.20;;;0.20;;
10839;SDS011;5473;42.706;23.328;2022-08-30T03:51:06;0.20;;;0.20;;
10839;SDS011;5473;42.706;23.328;2022-08-30T03:53:33;0.20;;;0.20;;
10839;SDS011;5473;42.706;23.328;2022-08-30T03:56:00;0.20;;;0.20;;
10839;SDS011;5473;42.706;23.328;2022-08-30T03:58:29;0.20;;;0.20;;
10839;SDS011;5473;42.706;23.328;2022-08-30T04:00:57;0.20;;;0.20;;
10839;SDS011;5473;42.706;23.328;2022-08-30T04:03:24;0.20;;;0.20;;
10839;SDS011;5473;42.706;23.328;2022-08-30T04:05:51;0.20;;;0.20;;
10839;SDS011;5473;42.706;23.328;2022-08-30T04:08:18;0.20;;;0.20;;
10839;SDS011;5473;42.706;23.328;2022-08-30T04:10:45;0.20;;;0.20;;
10839;SDS011;5473;42.706;23.328;2022-08-30T04:13:12;0.20;;;0.20;;
10839;SDS011;5473;42.706;23.328;2022-08-30T04:15:41;0.30;;;0.30;;
10839;SDS011;5473;42.706;23.328;2022-08-30T04:18:08;0.20;;;0.20;;
10839;SDS011;5473;42.706;23.328;2022-08-30T04:20:35;0.10;;;0.10;;
10839;SDS011;5473;42.706;23.328;2022-08-30T04:23:02;0.20;;;0.20;;
10839;SDS011;5473;42.706;23.328;2022-08-30T04:25:31;0.10;;;0.10;;
10839;SDS011;5473;42.706;23.328;2022-08-30T04:27:58;0.20;;;0.20;;
10839;SDS011;5473;42.706;23.328;2022-08-30T04:30:25;0.20;;;0.20;;
10839;SDS011;5473;42.706;23.328;2022-08-30T04:32:54;0.20;;;0.20;;
10839;SDS011;5473;42.706;23.328;2022-08-30T04:35:21;0.20;;;0.20;;
10839;SDS011;5473;42.706;23.328;2022-08-30T04:37:47;0.20;;;0.20;;
10839;SDS011;5473;42.706;23.328;2022-08-30T04:40:14;0.20;;;0.20;;
10839;SDS011;5473;42.706;23.328;2022-08-30T04:42:41;0.20;;;0.20;;
10839;SDS011;5473;42.706;23.328;2022-08-30T04:45:09;0.20;;;0.20;;
10839;SDS011;5473;42.706;23.328;2022-08-30T04:47:39;0.20;;;0.20;;
10839;SDS011;5473;42.706;23.328;2022-08-30T04:50:09;0.20;;;0.20;;
10839;SDS011;5473;42.706;23.328;2022-08-30T04:52:37;0.20;;;0.20;;
10839;SDS011;5473;42.706;23.328;2022-08-30T04:55:05;0.20;;;0.20;;
10839;SDS011;5473;42.706;23.328;2022-08-30T04:57:34;0.17;;;0.17;;
10839;SDS011;5473;42.706;23.328;2022-08-30T05:00:03;0.20;;;0.20;;
10839;SDS011;5473;42.706;23.328;2022-08-30T05:02:31;0.10;;;0.10;;
10839;SDS011;5473;42.706;23.328;2022-08-30T05:04:58;0.10;;;0.10;;
10839;SDS011;5473;42.706;23.328;2022-08-30T05:07:44;0.20;;;0.20;;
10839;SDS011;5473;42.706;23.328;2022-08-30T05:10:12;0.10;;;0.10;;
10839;SDS011;5473;42.706;23.328;2022-08-30T05:12:39;0.20;;;0.20;;
10839;SDS011;5473;42.706;23.328;2022-08-30T05:15:07;0.10;;;0.10;;
10839;SDS011;5473;42.706;23.328;2022-08-30T05:17:35;0.10;;;0.10;;
10839;SDS011;5473;42.706;23.328;2022-08-30T05:20:03;0.10;;;0.10;;
10839;SDS011;5473;42.706;23.328;2022-08-30T05:22:30;0.20;;;0.20;;
10839;SDS011;5473;42.706;23.328;2022-08-30T05:24:59;0.20;;;0.20;;
10839;SDS011;5473;42.706;23.328;2022-08-30T05:27:26;0.10;;;0.10;;
10839;SDS011;5473;42.706;23.328;2022-08-30T05:29:53;0.20;;;0.20;;
10839;SDS011;5473;42.706;23.328;2022-08-30T05:32:20;0.20;;;0.20;;
10839;SDS011;5473;42.706;23.328;2022-08-30T05:34:48;0.20;;;0.20;;
10839;SDS011;5473;42.706;23.328;2022-08-30T05:37:14;0.10;;;0.10;;
10839;SDS011;5473;42.706;23.328;2022-08-30T05:39:41;0.10;;;0.10;;
10839;SDS011;5473;42.706;23.328;2022-08-30T05:42:10;0.20;;;0.20;;
10839;SDS011;5473;42.706;23.328;2022-08-30T05:44:36;0.10;;;0.10;;
10839;SDS011;5473;42.706;23.328;2022-08-30T05:47:03;0.20;;;0.20;;
10839;SDS011;5473;42.706;23.328;2022-08-30T05:49:30;0.20;;;0.20;;
10839;SDS011;5473;42.706;23.328;2022-08-30T05:51:57;0.13;;;0.13;;
10839;SDS011;5473;42.706;23.328;2022-08-30T05:54:24;0.20;;;0.20;;
10839;SDS011;5473;42.706;23.328;2022-08-30T05:56:51;0.10;;;0.10;;
10839;SDS011;5473;42.706;23.328;2022-08-30T05:59:19;0.10;;;0.10;;
10839;SDS011;5473;42.706;23.328;2022-08-30T06:01:46;0.10;;;0.10;;
10839;SDS011;5473;42.706;23.328;2022-08-30T06:04:14;0.20;;;0.20;;
10839;SDS011;5473;42.706;23.328;2022-08-30T06:06:41;0.10;;;0.10;;
10839;SDS011;5473;42.706;23.328;2022-08-30T06:09:09;0.20;;;0.20;;
10839;SDS011;5473;42.706;23.328;2022-08-30T06:11:37;0.10;;;0.10;;
10839;SDS011;5473;42.706;23.328;2022-08-30T06:14:04;0.10;;;0.10;;
10839;SDS011;5473;42.706;23.328;2022-08-30T06:16:33;0.17;;;0.17;;
10839;SDS011;5473;42.706;23.328;2022-08-30T06:19:04;0.10;;;0.10;;
10839;SDS011;5473;42.706;23.328;2022-08-30T06:21:35;0.10;;;0.10;;
10839;SDS011;5473;42.706;23.328;2022-08-30T06:24:04;0.10;;;0.10;;
10839;SDS011;5473;42.706;23.328;2022-08-30T06:26:34;0.10;;;0.10;;
10839;SDS011;5473;42.706;23.328;2022-08-30T06:29:03;0.10;;;0.10;;
10839;SDS011;5473;42.706;23.328;2022-08-30T06:31:30;0.10;;;0.10;;
10839;SDS011;5473;42.706;23.328;2022-08-30T06:33:58;0.10;;;0.10;;
10839;SDS011;5473;42.706;23.328;2022-08-30T06:36:25;0.10;;;0.10;;
10839;SDS011;5473;42.706;23.328;2022-08-30T06:38:53;0.10;;;0.10;;
10839;SDS011;5473;42.706;23.328;2022-08-30T06:41:21;0.10;;;0.10;;
10839;SDS011;5473;42.706;23.328;2022-08-30T06:43:49;0.10;;;0.10;;
10839;SDS011;5473;42.706;23.328;2022-08-30T06:46:18;0.10;;;0.10;;
10839;SDS011;5473;42.706;23.328;2022-08-30T06:48:47;0.10;;;0.10;;
10839;SDS011;5473;42.706;23.328;2022-08-30T06:51:17;0.10;;;0.10;;
10839;SDS011;5473;42.706;23.328;2022-08-30T06:53:45;0.10;;;0.10;;
10839;SDS011;5473;42.706;23.328;2022-08-30T06:56:12;0.10;;;0.10;;
10839;SDS011;5473;42.706;23.328;2022-08-30T06:58:40;0.10;;;0.10;;
10839;SDS011;5473;42.706;23.328;2022-08-30T07:01:10;0.10;;;0.10;;
10839;SDS011;5473;42.706;23.328;2022-08-30T07:03:39;0.10;;;0.10;;
10839;SDS011;5473;42.706;23.328;2022-08-30T07:06:06;0.10;;;0.10;;
10839;SDS011;5473;42.706;23.328;2022-08-30T07:08:34;0.10;;;0.10;;
10839;SDS011;5473;42.706;23.328;2022-08-30T07:11:01;0.00;;;0.00;;
10839;SDS011;5473;42.706;23.328;2022-08-30T07:13:30;0.10;;;0.10;;
10839;SDS011;5473;42.706;23.328;2022-08-30T07:15:57;0.00;;;0.00;;
10839;SDS011;5473;42.706;23.328;2022-08-30T07:18:24;0.10;;;0.10;;
10839;SDS011;5473;42.706;23.328;2022-08-30T07:21:09;0.00;;;0.00;;
10839;SDS011;5473;42.706;23.328;2022-08-30T07:23:39;0.10;;;0.10;;
10839;SDS011;5473;42.706;23.328;2022-08-30T07:26:06;0.00;;;0.00;;
10839;SDS011;5473;42.706;23.328;2022-08-30T07:28:35;0.00;;;0.00;;
10839;SDS011;5473;42.706;23.328;2022-08-30T07:31:04;0.10;;;0.10;;
10839;SDS011;5473;42.706;23.328;2022-08-30T07:33:32;0.00;;;0.00;;
10839;SDS011;5473;42.706;23.328;2022-08-30T07:35:58;0.00;;;0.00;;
10839;SDS011;5473;42.706;23.328;2022-08-30T07:38:26;0.10;;;0.10;;
10839;SDS011;5473;42.706;23.328;2022-08-30T07:40:54;0.00;;;0.00;;
10839;SDS011;5473;42.706;23.328;2022-08-30T07:43:23;0.10;;;0.10;;
10839;SDS011;5473;42.706;23.328;2022-08-30T07:45:50;0.00;;;0.00;;
10839;SDS011;5473;42.706;23.328;2022-08-30T07:48:16;0.10;;;0.10;;
10839;SDS011;5473;42.706;23.328;2022-08-30T07:50:44;0.10;;;0.10;;
10839;SDS011;5473;42.706;23.328;2022-08-30T07:53:12;0.10;;;0.10;;
10839;SDS011;5473;42.706;23.328;2022-08-30T07:55:39;0.00;;;0.00;;
10839;SDS011;5473;42.706;23.328;2022-08-30T07:58:07;0.10;;;0.10;;
10839;SDS011;5473;42.706;23.328;2022-08-30T08:00:34;0.10;;;0.10;;
10839;SDS011;5473;42.706;23.328;2022-08-30T08:03:03;0.10;;;0.10;;
10839;SDS011;5473;42.706;23.328;2022-08-30T08:05:35;0.00;;;0.00;;
10839;SDS011;5473;42.706;23.328;2022-08-30T08:08:02;0.10;;;0.10;;
10839;SDS011;5473;42.706;23.328;2022-08-30T08:10:29;0.10;;;0.10;;
10839;SDS011;5473;42.706;23.328;2022-08-30T08:12:57;0.10;;;0.10;;
10839;SDS011;5473;42.706;23.328;2022-08-30T08:15:25;0.10;;;0.10;;
10839;SDS011;5473;42.706;23.328;2022-08-30T08:17:53;0.10;;;0.10;;
10839;SDS011;5473;42.706;23.328;2022-08-30T08:20:20;0.10;;;0.10;;
10839;SDS011;5473;42.706;23.328;2022-08-30T08:22:47;0.10;;;0.10;;
10839;SDS011;5473;42.706;23.328;2022-08-30T08:25:14;0.10;;;0.10;;
10839;SDS011;5473;42.706;23.328;2022-08-30T08:27:41;0.10;;;0.10;;
10839;SDS011;5473;42.706;23.328;2022-08-30T08:30:08;0.10;;;0.10;;
10839;SDS011;5473;42.706;23.328;2022-08-30T08:32:37;0.10;;;0.10;;
10839;SDS011;5473;42.706;23.328;2022-08-30T08:35:04;0.10;;;0.10;;
10839;SDS011;5473;42.706;23.328;2022-08-30T08:37:31;0.10;;;0.10;;
10839;SDS011;5473;42.706;23.328;2022-08-30T08:39:58;0.10;;;0.10;;
10839;SDS011;5473;42.706;23.328;2022-08-30T08:42:29;0.10;;;0.10;;
10839;SDS011;5473;42.706;23.328;2022-08-30T08:45:03;0.10;;;0.10;;
10839;SDS011;5473;42.706;23.328;2022-08-30T08:47:35;0.10;;;0.10;;
10839;SDS011;5473;42.706;23.328;2022-08-30T08:50:08;0.10;;;0.10;;
10839;SDS011;5473;42.706;23.328;2022-08-30T08:52:42;0.10;;;0.10;;
10839;SDS011;5473;42.706;23.328;2022-08-30T08:55:33;0.10;;;0.10;;
10839;SDS011;5473;42.706;23.328;2022-08-30T08:58:00;0.10;;;0.10;;
10839;SDS011;5473;42.706;23.328;2022-08-30T09:00:28;0.10;;;0.10;;
10839;SDS011;5473;42.706;23.328;2022-08-30T09:02:59;0.10;;;0.10;;
10839;SDS011;5473;42.706;23.328;2022-08-30T09:05:29;0.10;;;0.10;;
10839;SDS011;5473;42.706;23.328;2022-08-30T09:08:04;0.10;;;0.10;;
10839;SDS011;5473;42.706;23.328;2022-08-30T09:10:33;0.10;;;0.10;;
10839;SDS011;5473;42.706;23.328;2022-08-30T09:13:02;0.10;;;0.10;;
10839;SDS011;5473;42.706;23.328;2022-08-30T09:15:30;0.10;;;0.10;;
10839;SDS011;5473;42.706;23.328;2022-08-30T09:18:01;0.10;;;0.10;;
10839;SDS011;5473;42.706;23.328;2022-08-30T09:20:30;0.10;;;0.10;;
10839;SDS011;5473;42.706;23.328;2022-08-30T09:22:58;0.10;;;0.10;;
10839;SDS011;5473;42.706;23.328;2022-08-30T09:25:48;0.10;;;0.10;;
10839;SDS011;5473;42.706;23.328;2022-08-30T09:28:20;0.10;;;0.10;;
10839;SDS011;5473;42.706;23.328;2022-08-30T09:30:56;0.10;;;0.10;;
10839;SDS011;5473;42.706;23.328;2022-08-30T09:33:27;0.10;;;0.10;;
10839;SDS011;5473;42.706;23.328;2022-08-30T09:35:54;0.10;;;0.10;;
10839;SDS011;5473;42.706;23.328;2022-08-30T09:38:23;0.10;;;0.10;;
10839;SDS011;5473;42.706;23.328;2022-08-30T09:40:54;0.10;;;0.10;;
10839;SDS011;5473;42.706;23.328;2022-08-30T09:43:23;0.10;;;0.10;;
10839;SDS011;5473;42.706;23.328;2022-08-30T09:46:05;0.10;;;0.10;;
10839;SDS011;5473;42.706;23.328;2022-08-30T09:48:36;0.10;;;0.10;;
10839;SDS011;5473;42.706;23.328;2022-08-30T09:51:14;0.10;;;0.10;;
10839;SDS011;5473;42.706;23.328;2022-08-30T09:54:05;0.10;;;0.10;;
10839;SDS011;5473;42.706;23.328;2022-08-30T09:56:41;0.10;;;0.10;;
10839;SDS011;5473;42.706;23.328;2022-08-30T09:59:15;0.10;;;0.10;;
10839;SDS011;5473;42.706;23.328;2022-08-30T10:01:56;0.10;;;0.10;;
10839;SDS011;5473;42.706;23.328;2022-08-30T10:04:32;0.10;;;0.10;;
10839;SDS011;5473;42.706;23.328;2022-08-30T10:07:09;0.10;;;0.10;;
10839;SDS011;5473;42.706;23.328;2022-08-30T10:12:27;0.10;;;0.10;;
10839;SDS011;5473;42.706;23.328;2022-08-30T10:15:03;0.10;;;0.10;;
10839;SDS011;5473;42.706;23.328;2022-08-30T10:17:37;0.00;;;0.00;;
10839;SDS011;5473;42.706;23.328;2022-08-30T10:20:20;0.00;;;0.00;;
10839;SDS011;5473;42.706;23.328;2022-08-30T10:22:52;0.00;;;0.00;;
10839;SDS011;5473;42.706;23.328;2022-08-30T10:25:26;0.10;;;0.10;;
10839;SDS011;5473;42.706;23.328;2022-08-30T10:27:59;0.03;;;0.03;;
10839;SDS011;5473;42.706;23.328;2022-08-30T10:30:30;0.10;;;0.10;;
10839;SDS011;5473;42.706;23.328;2022-08-30T10:33:04;0.10;;;0.10;;
10839;SDS011;5473;42.706;23.328;2022-08-30T10:35:36;0.10;;;0.10;;
10839;SDS011;5473;42.706;23.328;2022-08-30T10:38:07;0.00;;;0.00;;
10839;SDS011;5473;42.706;23.328;2022-08-30T10:40:43;0.00;;;0.00;;
10839;SDS011;5473;42.706;23.328;2022-08-30T10:43:32;0.00;;;0.00;;
10839;SDS011;5473;42.706;23.328;2022-08-30T10:46:06;0.00;;;0.00;;
10839;SDS011;5473;42.706;23.328;2022-08-30T10:48:40;0.00;;;0.00;;
10839;SDS011;5473;42.706;23.328;2022-08-30T10:51:13;0.00;;;0.00;;
10839;SDS011;5473;42.706;23.328;2022-08-30T10:53:53;0.00;;;0.00;;
10839;SDS011;5473;42.706;23.328;2022-08-30T10:56:27;0.00;;;0.00;;
10839;SDS011;5473;42.706;23.328;2022-08-30T10:58:54;0.00;;;0.00;;
10839;SDS011;5473;42.706;23.328;2022-08-30T11:01:26;0.00;;;0.00;;
10839;SDS011;5473;42.706;23.328;2022-08-30T11:04:20;0.00;;;0.00;;
10839;SDS011;5473;42.706;23.328;2022-08-30T11:07:14;0.00;;;0.00;;
10839;SDS011;5473;42.706;23.328;2022-08-30T11:09:53;0.00;;;0.00;;
10839;SDS011;5473;42.706;23.328;2022-08-30T11:12:40;0.00;;;0.00;;
10839;SDS011;5473;42.706;23.328;2022-08-30T11:15:19;0.00;;;0.00;;
10839;SDS011;5473;42.706;23.328;2022-08-30T11:17:52;0.00;;;0.00;;
10839;SDS011;5473;42.706;23.328;2022-08-30T11:20:29;0.00;;;0.00;;
10839;SDS011;5473;42.706;23.328;2022-08-30T11:25:51;0.00;;;0.00;;
10839;SDS011;5473;42.706;23.328;2022-08-30T11:31:31;0.00;;;0.00;;
10839;SDS011;5473;42.706;23.328;2022-08-30T11:34:00;0.00;;;0.00;;
10839;SDS011;5473;42.706;23.328;2022-08-30T11:42:29;0.00;;;0.00;;
10839;SDS011;5473;42.706;23.328;2022-08-30T11:48:06;0.00;;;0.00;;
10839;SDS011;5473;42.706;23.328;2022-08-30T11:50:38;0.00;;;0.00;;
10839;SDS011;5473;42.706;23.328;2022-08-30T11:53:15;0.00;;;0.00;;
10839;SDS011;5473;42.706;23.328;2022-08-30T11:55:57;0.00;;;0.00;;
10839;SDS011;5473;42.706;23.328;2022-08-30T11:58:33;0.00;;;0.00;;
10839;SDS011;5473;42.706;23.328;2022-08-30T12:01:16;0.00;;;0.00;;
10839;SDS011;5473;42.706;23.328;2022-08-30T12:03:52;0.00;;;0.00;;
10839;SDS011;5473;42.706;23.328;2022-08-30T12:09:10;0.00;;;0.00;;
10839;SDS011;5473;42.706;23.328;2022-08-30T12:11:59;0.00;;;0.00;;
10839;SDS011;5473;42.706;23.328;2022-08-30T12:17:23;0.00;;;0.00;;
10839;SDS011;5473;42.706;23.328;2022-08-30T12:20:15;0.05;;;0.05;;
10839;SDS011;5473;42.706;23.328;2022-08-30T12:22:47;0.00;;;0.00;;
10839;SDS011;5473;42.706;23.328;2022-08-30T12:25:16;0.00;;;0.00;;
10839;SDS011;5473;42.706;23.328;2022-08-30T12:27:49;0.00;;;0.00;;
10839;SDS011;5473;42.706;23.328;2022-08-30T12:30:23;0.00;;;0.00;;
10839;SDS011;5473;42.706;23.328;2022-08-30T12:32:53;0.00;;;0.00;;
10839;SDS011;5473;42.706;23.328;2022-08-30T12:35:23;0.00;;;0.00;;
10839;SDS011;5473;42.706;23.328;2022-08-30T12:37:54;0.00;;;0.00;;
10839;SDS011;5473;42.706;23.328;2022-08-30T12:40:24;0.00;;;0.00;;
10839;SDS011;5473;42.706;23.328;2022-08-30T12:42:53;0.00;;;0.00;;
10839;SDS011;5473;42.706;23.328;2022-08-30T12:45:23;0.00;;;0.00;;
10839;SDS011;5473;42.706;23.328;2022-08-30T12:47:52;0.00;;;0.00;;
10839;SDS011;5473;42.706;23.328;2022-08-30T12:50:23;0.00;;;0.00;;
10839;SDS011;5473;42.706;23.328;2022-08-30T12:52:56;0.00;;;0.00;;
10839;SDS011;5473;42.706;23.328;2022-08-30T12:55:25;0.00;;;0.00;;
10839;SDS011;5473;42.706;23.328;2022-08-30T12:57:59;0.00;;;0.00;;
10839;SDS011;5473;42.706;23.328;2022-08-30T13:00:28;0.00;;;0.00;;
10839;SDS011;5473;42.706;23.328;2022-08-30T13:02:56;0.10;;;0.10;;
10839;SDS011;5473;42.706;23.328;2022-08-30T13:08:14;0.00;;;0.00;;
10839;SDS011;5473;42.706;23.328;2022-08-30T13:10:50;0.00;;;0.00;;
10839;SDS011;5473;42.706;23.328;2022-08-30T13:13:29;0.00;;;0.00;;
10839;SDS011;5473;42.706;23.328;2022-08-30T13:16:06;0.00;;;0.00;;
10839;SDS011;5473;42.706;23.328;2022-08-30T13:18:35;0.10;;;0.10;;
10839;SDS011;5473;42.706;23.328;2022-08-30T13:21:21;0.00;;;0.00;;
10839;SDS011;5473;42.706;23.328;2022-08-30T13:23:51;0.00;;;0.00;;
10839;SDS011;5473;42.706;23.328;2022-08-30T13:26:21;0.00;;;0.00;;
10839;SDS011;5473;42.706;23.328;2022-08-30T13:28:53;0.00;;;0.00;;
10839;SDS011;5473;42.706;23.328;2022-08-30T13:31:21;0.00;;;0.00;;
10839;SDS011;5473;42.706;23.328;2022-08-30T13:33:49;0.00;;;0.00;;
10839;SDS011;5473;42.706;23.328;2022-08-30T13:36:18;0.00;;;0.00;;
10839;SDS011;5473;42.706;23.328;2022-08-30T13:38:46;0.00;;;0.00;;
10839;SDS011;5473;42.706;23.328;2022-08-30T13:41:13;0.00;;;0.00;;
10839;SDS011;5473;42.706;23.328;2022-08-30T13:43:40;0.00;;;0.00;;
10839;SDS011;5473;42.706;23.328;2022-08-30T13:46:08;0.10;;;0.10;;
10839;SDS011;5473;42.706;23.328;2022-08-30T13:48:37;0.10;;;0.10;;
10839;SDS011;5473;42.706;23.328;2022-08-30T13:51:04;0.10;;;0.10;;
10839;SDS011;5473;42.706;23.328;2022-08-30T13:53:31;0.00;;;0.00;;
10839;SDS011;5473;42.706;23.328;2022-08-30T13:55:59;0.00;;;0.00;;
10839;SDS011;5473;42.706;23.328;2022-08-30T13:58:26;0.08;;;0.08;;
10839;SDS011;5473;42.706;23.328;2022-08-30T14:00:53;0.00;;;0.00;;
10839;SDS011;5473;42.706;23.328;2022-08-30T14:03:22;0.00;;;0.00;;
10839;SDS011;5473;42.706;23.328;2022-08-30T14:05:49;0.00;;;0.00;;
10839;SDS011;5473;42.706;23.328;2022-08-30T14:08:17;0.00;;;0.00;;
10839;SDS011;5473;42.706;23.328;2022-08-30T14:10:45;0.10;;;0.10;;
10839;SDS011;5473;42.706;23.328;2022-08-30T14:13:12;0.10;;;0.10;;
10839;SDS011;5473;42.706;23.328;2022-08-30T14:15:42;0.00;;;0.00;;
10839;SDS011;5473;42.706;23.328;2022-08-30T14:18:09;0.10;;;0.10;;
10839;SDS011;5473;42.706;23.328;2022-08-30T14:20:37;0.05;;;0.05;;
10839;SDS011;5473;42.706;23.328;2022-08-30T14:23:04;0.10;;;0.10;;
10839;SDS011;5473;42.706;23.328;2022-08-30T14:25:32;0.10;;;0.10;;
10839;SDS011;5473;42.706;23.328;2022-08-30T14:27:59;0.10;;;0.10;;
10839;SDS011;5473;42.706;23.328;2022-08-30T14:30:26;0.00;;;0.00;;
10839;SDS011;5473;42.706;23.328;2022-08-30T14:32:52;0.00;;;0.00;;
10839;SDS011;5473;42.706;23.328;2022-08-30T14:35:19;0.00;;;0.00;;
10839;SDS011;5473;42.706;23.328;2022-08-30T14:37:48;0.00;;;0.00;;
10839;SDS011;5473;42.706;23.328;2022-08-30T14:40:15;0.03;;;0.03;;
10839;SDS011;5473;42.706;23.328;2022-08-30T14:42:43;0.00;;;0.00;;
10839;SDS011;5473;42.706;23.328;2022-08-30T14:45:10;0.10;;;0.10;;
10839;SDS011;5473;42.706;23.328;2022-08-30T14:47:37;0.00;;;0.00;;
10839;SDS011;5473;42.706;23.328;2022-08-30T14:50:04;0.00;;;0.00;;
10839;SDS011;5473;42.706;23.328;2022-08-30T14:52:32;0.10;;;0.10;;
10839;SDS011;5473;42.706;23.328;2022-08-30T14:55:02;0.00;;;0.00;;
10839;SDS011;5473;42.706;23.328;2022-08-30T14:57:31;0.00;;;0.00;;
10839;SDS011;5473;42.706;23.328;2022-08-30T14:59:57;0.00;;;0.00;;
10839;SDS011;5473;42.706;23.328;2022-08-30T15:02:24;0.10;;;0.10;;
10839;SDS011;5473;42.706;23.328;2022-08-30T15:04:51;0.10;;;0.10;;
10839;SDS011;5473;42.706;23.328;2022-08-30T15:07:18;0.00;;;0.00;;
10839;SDS011;5473;42.706;23.328;2022-08-30T15:09:45;0.00;;;0.00;;
10839;SDS011;5473;42.706;23.328;2022-08-30T15:12:13;0.00;;;0.00;;
10839;SDS011;5473;42.706;23.328;2022-08-30T15:14:40;0.00;;;0.00;;
10839;SDS011;5473;42.706;23.328;2022-08-30T15:17:07;0.00;;;0.00;;
10839;SDS011;5473;42.706;23.328;2022-08-30T15:19:34;0.00;;;0.00;;
10839;SDS011;5473;42.706;23.328;2022-08-30T15:22:02;0.10;;;0.10;;
10839;SDS011;5473;42.706;23.328;2022-08-30T15:24:30;0.10;;;0.10;;
10839;SDS011;5473;42.706;23.328;2022-08-30T15:26:58;0.10;;;0.10;;
10839;SDS011;5473;42.706;23.328;2022-08-30T15:29:27;0.00;;;0.00;;